createdAt,value
2023-04-16T00:01:18.825Z,7.53
2023-04-16T00:03:47.046Z,7.52
2023-04-16T00:06:15.289Z,7.52
2023-04-16T00:08:43.563Z,7.53
2023-04-16T00:11:11.479Z,7.46
2023-04-16T00:13:39.428Z,7.49
2023-04-16T00:16:09.455Z,7.49
2023-04-16T00:18:37.254Z,7.51
2023-04-16T00:21:05.384Z,7.47
2023-04-16T00:23:33.271Z,7.46
2023-04-16T00:26:01.068Z,7.50
2023-04-16T00:28:28.894Z,7.46
2023-04-16T00:30:57.014Z,7.52
2023-04-16T00:33:26.354Z,7.46
2023-04-16T00:35:54.232Z,7.50
2023-04-16T00:38:22.354Z,7.50
2023-04-16T00:40:50.175Z,7.53
2023-04-16T00:43:22.801Z,7.55
2023-04-16T00:45:51.380Z,7.51
2023-04-16T00:48:19.506Z,7.51
2023-04-16T00:50:49.390Z,7.51
2023-04-16T00:53:17.713Z,7.52
2023-04-16T00:55:45.933Z,7.52
2023-04-16T00:58:14.164Z,7.49
2023-04-16T01:00:42.115Z,7.49
2023-04-16T01:03:10.649Z,7.48
2023-04-16T01:05:38.752Z,7.56
2023-04-16T01:08:08.118Z,7.54
2023-04-16T01:10:36.139Z,7.51
2023-04-16T01:13:03.974Z,7.48
2023-04-16T01:15:31.744Z,7.51
2023-04-16T01:17:59.657Z,7.47
2023-04-16T01:20:27.560Z,7.47
2023-04-16T01:22:56.863Z,7.47
2023-04-16T01:25:24.962Z,7.53
2023-04-16T01:27:54.826Z,7.49
2023-04-16T01:30:22.665Z,7.53
2023-04-16T01:33:02.539Z,7.45
2023-04-16T01:35:31.059Z,7.42
2023-04-16T01:38:00.284Z,7.48
2023-04-16T01:40:28.115Z,7.54
2023-04-16T01:42:56.033Z,7.54
2023-04-16T01:45:23.941Z,7.49
2023-04-16T01:47:52.070Z,7.46
2023-04-16T01:50:21.124Z,7.48
2023-04-16T01:52:49.410Z,7.41
2023-04-16T01:55:18.750Z,7.42
2023-04-16T01:57:46.592Z,7.46
2023-04-16T02:00:15.968Z,7.47
2023-04-16T02:02:47.298Z,7.45
2023-04-16T02:05:21.386Z,7.42
2023-04-16T02:07:49.206Z,7.43
2023-04-16T02:10:19.256Z,7.46
2023-04-16T02:12:47.683Z,7.53
2023-04-16T02:15:16.374Z,7.50
2023-04-16T02:17:46.506Z,7.55
2023-04-16T02:20:14.684Z,7.44
2023-04-16T02:22:49.826Z,7.44
2023-04-16T02:25:23.089Z,7.48
2023-04-16T02:27:51.583Z,7.49
2023-04-16T02:30:27.151Z,7.44
2023-04-16T02:32:55.834Z,7.43
2023-04-16T02:35:23.880Z,7.44
2023-04-16T02:37:51.731Z,7.39
2023-04-16T02:40:19.690Z,7.34
2023-04-16T02:42:50.636Z,7.40
2023-04-16T02:45:18.683Z,7.40
2023-04-16T02:47:46.821Z,7.40
2023-04-16T02:50:15.068Z,7.36
2023-04-16T02:52:43.815Z,7.42
2023-04-16T02:55:12.592Z,7.43
2023-04-16T02:57:40.735Z,7.43
2023-04-16T03:00:11.488Z,7.44
2023-04-16T03:02:39.548Z,7.42
2023-04-16T03:05:08.194Z,7.41
2023-04-16T03:07:36.225Z,7.44
2023-04-16T03:10:04.244Z,7.45
2023-04-16T03:12:47.342Z,7.48
2023-04-16T03:15:16.603Z,7.48
2023-04-16T03:17:44.921Z,7.48
2023-04-16T03:20:14.399Z,7.41
2023-04-16T03:22:42.613Z,7.42
2023-04-16T03:25:10.837Z,7.43
2023-04-16T03:27:39.720Z,7.38
2023-04-16T03:30:08.701Z,7.37
2023-04-16T03:32:38.590Z,7.42
2023-04-16T03:35:07.695Z,7.44
2023-04-16T03:37:36.395Z,7.45
2023-04-16T03:40:05.716Z,7.46
2023-04-16T03:42:33.761Z,7.46
2023-04-16T03:45:01.772Z,7.47
2023-04-16T03:47:29.834Z,7.42
2023-04-16T03:50:02.493Z,7.48
2023-04-16T03:52:30.505Z,7.45
2023-04-16T03:54:58.332Z,7.43
2023-04-16T03:57:28.718Z,7.39
2023-04-16T04:00:02.193Z,7.41
2023-04-16T04:02:42.271Z,7.43
2023-04-16T04:05:19.019Z,7.42
2023-04-16T04:07:48.185Z,7.41
2023-04-16T04:10:16.157Z,7.43
2023-04-16T04:12:44.427Z,7.37
2023-04-16T04:15:13.522Z,7.38
2023-04-16T04:17:43.513Z,7.38
2023-04-16T04:20:12.950Z,7.41
2023-04-16T04:22:46.281Z,7.41
2023-04-16T04:25:14.229Z,7.33
2023-04-16T04:27:42.591Z,7.35
2023-04-16T04:30:11.579Z,7.34
2023-04-16T04:32:40.528Z,7.35
2023-04-16T04:35:09.321Z,7.41
2023-04-16T04:37:37.620Z,7.42
2023-04-16T04:40:15.548Z,7.37
2023-04-16T04:42:43.747Z,7.38
2023-04-16T04:45:12.267Z,7.40
2023-04-16T04:47:42.131Z,7.41
2023-04-16T04:50:10.904Z,7.40
2023-04-16T04:52:39.130Z,7.44
2023-04-16T04:55:09.048Z,7.46
2023-04-16T04:57:38.354Z,7.47
2023-04-16T05:00:10.021Z,7.46
2023-04-16T05:02:48.305Z,7.48
2023-04-16T05:05:16.342Z,7.54
2023-04-16T05:07:44.233Z,7.56
2023-04-16T05:10:12.081Z,7.60
2023-04-16T05:12:41.349Z,7.61
2023-04-16T05:15:10.451Z,7.63
2023-04-16T05:17:38.330Z,7.58
2023-04-16T05:20:07.267Z,7.56
2023-04-16T05:22:35.108Z,7.65
2023-04-16T05:25:03.363Z,7.60
2023-04-16T05:27:31.204Z,7.56
2023-04-16T05:30:00.436Z,7.55
2023-04-16T05:32:28.416Z,7.57
2023-04-16T05:34:56.330Z,7.60
2023-04-16T05:37:24.525Z,7.66
2023-04-16T05:39:52.353Z,7.64
2023-04-16T05:42:20.206Z,7.66
2023-04-16T05:44:48.229Z,7.67
2023-04-16T05:47:17.511Z,7.72
2023-04-16T05:49:45.435Z,7.74
2023-04-16T05:52:13.441Z,7.72
2023-04-16T05:54:41.250Z,7.75
2023-04-16T05:57:09.063Z,7.76
2023-04-16T05:59:36.878Z,7.76
2023-04-16T06:02:04.758Z,7.78
2023-04-16T06:04:35.672Z,7.83
2023-04-16T06:07:03.527Z,7.87
2023-04-16T06:09:31.298Z,7.84
2023-04-16T06:11:59.176Z,7.80
2023-04-16T06:14:26.976Z,7.81
2023-04-16T06:16:54.813Z,7.85
2023-04-16T06:19:22.605Z,7.91
2023-04-16T06:21:52.028Z,7.86
2023-04-16T06:24:20.333Z,7.88
2023-04-16T06:26:48.120Z,7.86
2023-04-16T06:29:16.066Z,7.89
2023-04-16T06:31:43.939Z,7.86
2023-04-16T06:34:11.801Z,7.91
2023-04-16T06:36:39.582Z,7.87
2023-04-16T06:39:09.142Z,7.93
2023-04-16T06:41:37.348Z,7.93
2023-04-16T06:44:05.151Z,7.89
2023-04-16T06:46:33.236Z,7.93
2023-04-16T06:49:01.089Z,7.95
2023-04-16T06:51:29.088Z,8.01
2023-04-16T06:53:56.936Z,7.97
2023-04-16T06:56:26.223Z,8.01
2023-04-16T06:58:54.048Z,7.97
2023-04-16T07:01:21.915Z,8.00
2023-04-16T07:03:49.872Z,7.97
2023-04-16T07:06:18.040Z,7.99
2023-04-16T07:08:45.846Z,8.06
2023-04-16T07:11:13.694Z,7.99
2023-04-16T07:13:43.065Z,8.05
2023-04-16T07:16:10.999Z,8.05
2023-04-16T07:18:38.985Z,8.06
2023-04-16T07:21:06.965Z,8.08
2023-04-16T07:23:34.955Z,8.07
2023-04-16T07:26:02.747Z,8.13
2023-04-16T07:28:30.696Z,8.14
2023-04-16T07:30:59.942Z,8.17
2023-04-16T07:33:27.883Z,8.20
2023-04-16T07:35:55.782Z,8.24
2023-04-16T07:38:23.560Z,8.23
2023-04-16T07:40:51.421Z,8.26
2023-04-16T07:43:19.310Z,8.30
2023-04-16T07:45:47.179Z,8.35
2023-04-16T07:48:16.368Z,8.37
2023-04-16T07:50:44.320Z,8.38
2023-04-16T07:53:12.148Z,8.37
2023-04-16T07:55:39.871Z,8.43
2023-04-16T07:58:09.569Z,8.46
2023-04-16T08:00:37.490Z,8.56
2023-04-16T08:03:05.481Z,8.62
2023-04-16T08:05:34.989Z,8.66
2023-04-16T08:08:02.882Z,8.68
2023-04-16T08:10:30.841Z,8.80
2023-04-16T08:12:58.680Z,8.77
2023-04-16T08:15:26.635Z,8.86
2023-04-16T08:17:54.759Z,8.95
2023-04-16T08:20:22.788Z,9.11
2023-04-16T08:22:51.978Z,9.18
2023-04-16T08:25:20.199Z,9.12
2023-04-16T08:27:47.976Z,9.11
2023-04-16T08:30:16.673Z,9.25
2023-04-16T08:32:44.752Z,9.28
2023-04-16T08:35:13.249Z,9.43
2023-04-16T08:37:41.085Z,9.59
2023-04-16T08:40:11.057Z,9.56
2023-04-16T08:42:42.046Z,9.45
2023-04-16T08:45:16.062Z,9.46
2023-04-16T08:47:47.391Z,9.48
2023-04-16T08:50:16.469Z,9.49
2023-04-16T08:52:48.118Z,9.40
2023-04-16T08:55:19.883Z,9.39
2023-04-16T08:57:53.400Z,9.38
2023-04-16T09:00:22.295Z,9.45
2023-04-16T09:02:51.650Z,9.55
2023-04-16T09:05:21.374Z,9.66
2023-04-16T09:07:49.746Z,9.60
2023-04-16T09:10:19.933Z,9.62
2023-04-16T09:12:47.928Z,9.63
2023-04-16T09:15:15.796Z,9.69
2023-04-16T09:17:43.961Z,9.88
2023-04-16T09:20:12.567Z,10.08
2023-04-16T09:22:41.086Z,10.27
2023-04-16T09:25:10.054Z,10.40
2023-04-16T09:27:40.288Z,10.52
2023-04-16T09:30:22.080Z,10.73
2023-04-16T09:32:50.425Z,11.04
2023-04-16T09:35:20.036Z,11.23
2023-04-16T09:37:57.763Z,11.69
2023-04-16T09:40:27.507Z,11.57
2023-04-16T09:43:00.733Z,11.45
2023-04-16T09:45:33.972Z,11.23
2023-04-16T09:48:05.832Z,11.30
2023-04-16T09:50:33.763Z,11.27
2023-04-16T09:53:04.547Z,11.09
2023-04-16T09:55:33.528Z,10.96
2023-04-16T09:58:03.358Z,11.01
2023-04-16T10:00:32.068Z,10.96
2023-04-16T10:03:07.183Z,10.71
2023-04-16T10:05:35.274Z,10.78
2023-04-16T10:08:03.367Z,10.74
2023-04-16T10:10:31.243Z,10.76
2023-04-16T10:12:59.657Z,10.73
2023-04-16T10:15:29.313Z,10.71
2023-04-16T10:17:58.702Z,10.71
2023-04-16T10:20:27.397Z,10.81
2023-04-16T10:22:56.083Z,10.77
2023-04-16T10:25:24.450Z,10.83
2023-04-16T10:27:53.323Z,10.82
2023-04-16T10:30:22.118Z,10.87
2023-04-16T10:32:53.284Z,10.84
2023-04-16T10:35:21.541Z,11.05
2023-04-16T10:37:51.460Z,11.15
2023-04-16T10:40:24.411Z,11.17
2023-04-16T10:42:56.884Z,11.41
2023-04-16T10:45:31.659Z,11.09
2023-04-16T10:48:05.263Z,11.17
2023-04-16T10:50:37.290Z,11.31
2023-04-16T10:53:19.012Z,11.26
2023-04-16T10:56:12.246Z,11.25
2023-04-16T10:58:40.572Z,11.31
2023-04-16T11:01:09.191Z,11.31
2023-04-16T11:03:42.101Z,11.20
2023-04-16T11:06:16.608Z,11.18
2023-04-16T11:08:54.377Z,11.16
2023-04-16T11:11:23.679Z,11.12
2023-04-16T11:13:56.901Z,11.43
2023-04-16T11:16:27.142Z,11.52
2023-04-16T11:18:57.604Z,11.63
2023-04-16T11:21:26.639Z,11.68
2023-04-16T11:23:54.832Z,11.79
2023-04-16T11:26:27.281Z,11.81
2023-04-16T11:28:56.971Z,11.84
2023-04-16T11:31:27.081Z,11.86
2023-04-16T11:33:59.391Z,11.93
2023-04-16T11:36:28.005Z,11.84
2023-04-16T11:39:03.332Z,11.94
2023-04-16T11:41:31.214Z,12.17
2023-04-16T11:43:59.171Z,12.44
2023-04-16T11:46:39.183Z,12.49
2023-04-16T11:49:08.845Z,12.79
2023-04-16T11:51:41.192Z,12.67
2023-04-16T11:54:11.852Z,13.01
2023-04-16T11:56:46.831Z,12.86
2023-04-16T11:59:17.115Z,12.62
2023-04-16T12:01:48.389Z,12.47
2023-04-16T12:04:19.929Z,12.39
2023-04-16T12:07:07.918Z,12.38
2023-04-16T12:09:38.699Z,12.91
2023-04-16T12:12:26.038Z,13.13
2023-04-16T12:14:56.772Z,13.28
2023-04-16T12:17:25.229Z,13.34
2023-04-16T12:19:58.188Z,13.51
2023-04-16T12:22:30.112Z,13.34
2023-04-16T12:25:00.492Z,13.23
2023-04-16T12:27:42.341Z,12.73
2023-04-16T12:30:11.309Z,12.52
2023-04-16T12:32:39.450Z,12.38
2023-04-16T12:35:09.979Z,12.47
2023-04-16T12:37:38.448Z,12.48
2023-04-16T12:40:08.813Z,12.50
2023-04-16T12:42:37.196Z,12.56
2023-04-16T12:45:07.017Z,12.66
2023-04-16T12:47:35.243Z,12.67
2023-04-16T12:50:03.685Z,12.73
2023-04-16T12:52:33.042Z,13.00
2023-04-16T12:55:02.766Z,13.58
2023-04-16T12:57:30.614Z,14.10
2023-04-16T12:59:59.695Z,13.91
2023-04-16T13:02:28.345Z,14.18
2023-04-16T13:04:56.755Z,14.10
2023-04-16T13:07:26.911Z,13.65
2023-04-16T13:09:56.576Z,13.57
2023-04-16T13:12:24.752Z,13.42
2023-04-16T13:14:52.635Z,13.12
2023-04-16T13:17:20.793Z,13.11
2023-04-16T13:19:48.712Z,12.92
2023-04-16T13:22:16.650Z,12.81
2023-04-16T13:24:44.617Z,12.91
2023-04-16T13:27:16.104Z,12.77
2023-04-16T13:29:44.568Z,12.84
2023-04-16T13:32:13.940Z,13.04
2023-04-16T13:34:41.922Z,13.13
2023-04-16T13:37:09.830Z,13.43
2023-04-16T13:39:37.766Z,13.65
2023-04-16T13:42:05.967Z,13.84
2023-04-16T13:44:35.419Z,14.07
2023-04-16T13:47:03.645Z,13.91
2023-04-16T13:49:35.625Z,13.69
2023-04-16T13:52:04.062Z,13.50
2023-04-16T13:54:32.420Z,13.15
2023-04-16T13:57:00.395Z,13.17
2023-04-16T13:59:28.906Z,13.12
2023-04-16T14:01:58.678Z,13.04
2023-04-16T14:04:26.613Z,13.07
2023-04-16T14:06:54.526Z,13.15
2023-04-16T14:09:22.566Z,13.32
2023-04-16T14:11:50.826Z,13.32
2023-04-16T14:14:18.768Z,13.46
2023-04-16T14:16:46.782Z,13.44
2023-04-16T14:19:16.660Z,13.56
2023-04-16T14:21:44.766Z,13.77
2023-04-16T14:24:12.653Z,13.95
2023-04-16T14:26:40.533Z,13.67
2023-04-16T14:29:08.549Z,14.00
2023-04-16T14:31:37.225Z,13.94
2023-04-16T14:34:05.156Z,13.71
2023-04-16T14:36:34.522Z,13.68
2023-04-16T14:39:02.443Z,13.52
2023-04-16T14:41:31.257Z,13.38
2023-04-16T14:44:00.934Z,13.43
2023-04-16T14:46:29.107Z,13.38
2023-04-16T14:48:57.210Z,13.35
2023-04-16T14:51:26.368Z,13.48
2023-04-16T14:53:55.781Z,13.53
2023-04-16T14:56:23.736Z,13.47
2023-04-16T14:58:51.634Z,13.50
2023-04-16T15:01:19.616Z,13.76
2023-04-16T15:03:47.598Z,14.39
2023-04-16T15:06:16.603Z,14.28
2023-04-16T15:08:44.608Z,14.20
2023-04-16T15:11:13.997Z,14.38
2023-04-16T15:13:41.946Z,14.37
2023-04-16T15:16:10.112Z,14.12
2023-04-16T15:18:39.750Z,14.04
2023-04-16T15:21:08.759Z,13.78
2023-04-16T15:23:37.860Z,13.75
2023-04-16T15:26:05.840Z,14.03
2023-04-16T15:28:35.726Z,14.23
2023-04-16T15:31:03.734Z,13.84
2023-04-16T15:33:31.917Z,13.74
2023-04-16T15:35:59.705Z,13.94
2023-04-16T15:38:29.716Z,13.91
2023-04-16T15:41:00.664Z,13.87
2023-04-16T15:43:29.788Z,14.25
2023-04-16T15:45:59.882Z,14.22
2023-04-16T15:48:28.433Z,14.10
2023-04-16T15:50:56.493Z,13.90
2023-04-16T15:53:25.487Z,13.96
2023-04-16T15:55:53.947Z,14.04
2023-04-16T15:58:23.318Z,14.16
2023-04-16T16:00:51.434Z,14.02
2023-04-16T16:03:22.134Z,14.10
2023-04-16T16:05:50.297Z,14.01
2023-04-16T16:08:18.603Z,13.94
2023-04-16T16:10:46.782Z,14.13
2023-04-16T16:13:18.268Z,14.30
2023-04-16T16:15:46.343Z,14.15
2023-04-16T16:18:14.236Z,14.07
2023-04-16T16:20:43.823Z,13.96
2023-04-16T16:23:11.846Z,14.30
2023-04-16T16:25:39.750Z,14.70
2023-04-16T16:28:07.672Z,14.66
2023-04-16T16:30:36.905Z,14.79
2023-04-16T16:33:04.941Z,14.66
2023-04-16T16:35:32.845Z,14.38
2023-04-16T16:38:02.075Z,14.67
2023-04-16T16:40:30.105Z,14.35
2023-04-16T16:42:58.045Z,14.10
2023-04-16T16:45:27.177Z,13.92
2023-04-16T16:47:55.487Z,13.82
2023-04-16T16:50:23.318Z,13.69
2023-04-16T16:52:51.521Z,13.55
2023-04-16T16:55:21.159Z,13.50
2023-04-16T16:57:49.308Z,13.43
2023-04-16T17:00:20.229Z,13.30
2023-04-16T17:02:51.121Z,13.22
2023-04-16T17:05:19.345Z,13.51
2023-04-16T17:07:47.332Z,13.32
2023-04-16T17:10:20.067Z,13.14
2023-04-16T17:12:50.075Z,13.08
2023-04-16T17:15:20.694Z,12.93
2023-04-16T17:17:50.046Z,12.91
2023-04-16T17:20:18.068Z,12.91
2023-04-16T17:22:45.914Z,12.92
2023-04-16T17:25:13.891Z,12.93
2023-04-16T17:27:41.968Z,12.84
2023-04-16T17:30:11.777Z,12.85
2023-04-16T17:32:39.631Z,12.77
2023-04-16T17:35:09.404Z,12.79
2023-04-16T17:37:37.267Z,12.78
2023-04-16T17:40:07.502Z,12.80
2023-04-16T17:42:35.707Z,12.79
2023-04-16T17:45:03.951Z,12.80
2023-04-16T17:47:35.568Z,12.73
2023-04-16T17:50:03.519Z,12.73
2023-04-16T17:52:31.457Z,12.71
2023-04-16T17:55:01.668Z,12.68
2023-04-16T17:57:29.800Z,12.58
2023-04-16T17:59:57.878Z,12.53
2023-04-16T18:02:26.149Z,12.53
2023-04-16T18:04:55.719Z,12.57
2023-04-16T18:07:23.824Z,12.47
2023-04-16T18:09:51.696Z,12.42
2023-04-16T18:12:19.715Z,12.46
2023-04-16T18:14:47.489Z,12.44
2023-04-16T18:17:15.547Z,12.40
2023-04-16T18:19:44.736Z,12.42
2023-04-16T18:22:14.358Z,12.42
2023-04-16T18:24:42.298Z,12.41
2023-04-16T18:27:10.406Z,12.33
2023-04-16T18:29:39.905Z,12.39
2023-04-16T18:32:11.786Z,12.30
2023-04-16T18:34:40.030Z,12.18
2023-04-16T18:37:07.958Z,12.04
2023-04-16T18:39:37.748Z,11.98
2023-04-16T18:42:06.363Z,12.02
2023-04-16T18:44:34.248Z,12.04
2023-04-16T18:47:02.303Z,12.05
2023-04-16T18:49:30.528Z,11.91
2023-04-16T18:51:58.414Z,11.76
2023-04-16T18:54:27.556Z,11.68
2023-04-16T18:56:59.059Z,11.61
2023-04-16T18:59:28.577Z,11.56
2023-04-16T19:01:57.420Z,11.55
2023-04-16T19:04:25.471Z,11.54
2023-04-16T19:06:53.361Z,11.53
2023-04-16T19:09:21.352Z,11.54
2023-04-16T19:11:50.614Z,11.58
2023-04-16T19:14:20.020Z,11.54
2023-04-16T19:16:48.429Z,11.42
2023-04-16T19:19:17.828Z,11.41
2023-04-16T19:21:45.677Z,11.36
2023-04-16T19:24:13.627Z,11.38
2023-04-16T19:26:41.560Z,11.34
2023-04-16T19:29:09.901Z,11.31
2023-04-16T19:31:39.533Z,11.30
2023-04-16T19:34:07.395Z,11.30
2023-04-16T19:36:35.669Z,11.28
2023-04-16T19:39:03.895Z,11.33
2023-04-16T19:41:32.059Z,11.31
2023-04-16T19:44:00.496Z,11.35
2023-04-16T19:46:28.825Z,11.34
2023-04-16T19:48:58.078Z,11.38
2023-04-16T19:51:27.104Z,11.36
2023-04-16T19:53:55.349Z,11.34
2023-04-16T19:56:23.254Z,11.36
2023-04-16T19:58:51.092Z,11.28
2023-04-16T20:01:18.958Z,11.28
2023-04-16T20:03:46.883Z,11.30
2023-04-16T20:06:17.375Z,11.27
2023-04-16T20:08:45.732Z,11.25
2023-04-16T20:11:13.576Z,11.21
2023-04-16T20:13:41.364Z,11.21
2023-04-16T20:16:09.392Z,11.12
2023-04-16T20:18:41.216Z,11.12
2023-04-16T20:21:09.235Z,11.12
2023-04-16T20:23:38.586Z,11.10
2023-04-16T20:26:06.976Z,11.12
2023-04-16T20:28:34.886Z,11.08
2023-04-16T20:31:02.755Z,11.06
2023-04-16T20:33:30.617Z,11.06
2023-04-16T20:35:58.548Z,10.96
2023-04-16T20:38:26.366Z,10.99
2023-04-16T20:41:06.416Z,10.97
2023-04-16T20:43:38.474Z,10.99
2023-04-16T20:46:06.731Z,10.92
2023-04-16T20:48:34.956Z,10.94
2023-04-16T20:51:03.832Z,10.95
2023-04-16T20:53:32.550Z,10.92
2023-04-16T20:56:01.781Z,10.90
2023-04-16T20:58:30.129Z,10.87
2023-04-16T21:00:58.941Z,10.85
2023-04-16T21:03:26.917Z,10.84
2023-04-16T21:05:56.194Z,10.79
2023-04-16T21:08:24.652Z,10.72
2023-04-16T21:10:52.510Z,10.70
2023-04-16T21:13:21.829Z,10.67
2023-04-16T21:15:50.078Z,10.60
2023-04-16T21:18:18.574Z,10.57
2023-04-16T21:20:46.491Z,10.55
2023-04-16T21:23:14.373Z,10.53
2023-04-16T21:25:42.197Z,10.51
2023-04-16T21:28:10.097Z,10.40
2023-04-16T21:30:39.443Z,10.44
2023-04-16T21:33:07.894Z,10.43
2023-04-16T21:35:35.786Z,10.46
2023-04-16T21:38:03.719Z,10.45
2023-04-16T21:40:31.475Z,10.48
2023-04-16T21:42:59.340Z,10.40
2023-04-16T21:45:28.432Z,10.39
2023-04-16T21:47:58.878Z,10.35
2023-04-16T21:50:26.808Z,10.33
2023-04-16T21:52:54.787Z,10.31
2023-04-16T21:55:22.672Z,10.30
2023-04-16T21:57:50.549Z,10.34
2023-04-16T22:00:19.122Z,10.33
2023-04-16T22:02:47.027Z,10.21
2023-04-16T22:05:16.463Z,10.18
2023-04-16T22:07:44.362Z,10.18
2023-04-16T22:10:14.855Z,10.10
2023-04-16T22:12:44.754Z,10.04
2023-04-16T22:15:13.792Z,10.01
2023-04-16T22:17:41.926Z,9.91
2023-04-16T22:20:13.107Z,9.96
2023-04-16T22:22:42.877Z,10.00
2023-04-16T22:25:11.462Z,10.05
2023-04-16T22:27:39.538Z,9.99
2023-04-16T22:30:09.267Z,10.00
2023-04-16T22:32:37.247Z,9.90
2023-04-16T22:35:05.653Z,9.86
2023-04-16T22:37:33.580Z,9.89
2023-04-16T22:40:07.481Z,9.86
2023-04-16T22:42:35.464Z,9.91
2023-04-16T22:45:03.292Z,9.90
2023-04-16T22:47:31.180Z,9.90
2023-04-16T22:50:00.410Z,9.92
2023-04-16T22:52:28.302Z,9.92
2023-04-16T22:54:56.132Z,9.90
2023-04-16T22:57:26.124Z,9.85
2023-04-16T22:59:54.036Z,9.89
2023-04-16T23:02:22.262Z,9.89
2023-04-16T23:04:50.094Z,9.84
2023-04-16T23:07:17.938Z,9.83
2023-04-16T23:09:45.982Z,9.82
2023-04-16T23:12:13.867Z,9.83
2023-04-16T23:14:45.735Z,9.82
2023-04-16T23:17:13.992Z,9.74
2023-04-16T23:19:41.883Z,9.77
2023-04-16T23:22:10.037Z,9.75
2023-04-16T23:24:37.877Z,9.72
2023-04-16T23:27:05.704Z,9.72
2023-04-16T23:29:33.630Z,9.69
2023-04-16T23:32:02.784Z,9.73
2023-04-16T23:34:30.618Z,9.79
2023-04-16T23:36:58.467Z,9.71
2023-04-16T23:39:26.313Z,9.72
2023-04-16T23:41:54.154Z,9.75
2023-04-16T23:44:22.010Z,9.77
2023-04-16T23:46:49.803Z,9.78
2023-04-16T23:49:19.042Z,9.78
2023-04-16T23:51:46.906Z,9.82
2023-04-16T23:54:14.788Z,9.84
2023-04-16T23:56:42.578Z,9.76
2023-04-16T23:59:11.165Z,9.74
